sensor_id;sensor_type;location;lat;lon;timestamp;pressure;altitude;pressure_sealevel;temperature;humidity
21086;BME280;34247;50.064;19.970;2022-09-19T00:00:25;98358.59;;;10.96;97.11
21086;BME280;34247;50.064;19.970;2022-09-19T00:01:35;98365.31;;;11.00;97.42
21086;BME280;34247;50.064;19.970;2022-09-19T00:02:39;98361.94;;;10.98;96.94
21086;BME280;34247;50.064;19.970;2022-09-19T00:03:53;98369.91;;;10.98;97.02
21086;BME280;34247;50.064;19.970;2022-09-19T00:04:57;98360.53;;;10.94;97.04
21086;BME280;34247;50.064;19.970;2022-09-19T00:06:00;98356.44;;;10.90;97.46
21086;BME280;34247;50.064;19.970;2022-09-19T00:07:04;98365.72;;;10.95;97.71
21086;BME280;34247;50.064;19.970;2022-09-19T00:08:09;98352.97;;;10.89;97.62
21086;BME280;34247;50.064;19.970;2022-09-19T00:09:17;98359.56;;;10.95;97.53
21086;BME280;34247;50.064;19.970;2022-09-19T00:10:22;98357.16;;;10.92;97.70
21086;BME280;34247;50.064;19.970;2022-09-19T00:11:26;98364.03;;;10.94;97.78
21086;BME280;34247;50.064;19.970;2022-09-19T00:12:31;98364.03;;;10.94;97.83
21086;BME280;34247;50.064;19.970;2022-09-19T00:13:38;98361.25;;;10.96;98.05
21086;BME280;34247;50.064;19.970;2022-09-19T00:14:47;98361.25;;;10.96;98.20
21086;BME280;34247;50.064;19.970;2022-09-19T00:15:51;98352.69;;;10.92;98.07
21086;BME280;34247;50.064;19.970;2022-09-19T00:17:05;98357.63;;;10.97;98.31
21086;BME280;34247;50.064;19.970;2022-09-19T00:18:10;98350.63;;;10.96;98.28
21086;BME280;34247;50.064;19.970;2022-09-19T00:19:18;98348.13;;;10.94;98.32
21086;BME280;34247;50.064;19.970;2022-09-19T00:20:21;98346.28;;;10.95;98.02
21086;BME280;34247;50.064;19.970;2022-09-19T00:21:34;98344.22;;;10.98;98.25
21086;BME280;34247;50.064;19.970;2022-09-19T00:22:37;98355.44;;;11.02;98.05
21086;BME280;34247;50.064;19.970;2022-09-19T00:24:02;98358.09;;;11.02;97.76
21086;BME280;34247;50.064;19.970;2022-09-19T00:25:24;98348.31;;;11.02;98.08
21086;BME280;34247;50.064;19.970;2022-09-19T00:26:28;98355.16;;;11.05;97.89
21086;BME280;34247;50.064;19.970;2022-09-19T00:27:32;98353.34;;;11.05;98.00
21086;BME280;34247;50.064;19.970;2022-09-19T00:28:37;98357.66;;;11.07;98.09
21086;BME280;34247;50.064;19.970;2022-09-19T00:29:42;98355.00;;;11.07;98.21
21086;BME280;34247;50.064;19.970;2022-09-19T00:30:45;98346.22;;;11.06;98.29
21086;BME280;34247;50.064;19.970;2022-09-19T00:31:50;98346.94;;;11.08;98.25
21086;BME280;34247;50.064;19.970;2022-09-19T00:32:54;98352.25;;;11.08;98.05
21086;BME280;34247;50.064;19.970;2022-09-19T00:33:58;98349.59;;;11.08;98.32
21086;BME280;34247;50.064;19.970;2022-09-19T00:35:03;98335.16;;;11.01;98.45
21086;BME280;34247;50.064;19.970;2022-09-19T00:36:08;98340.06;;;11.05;98.20
21086;BME280;34247;50.064;19.970;2022-09-19T00:37:12;98345.97;;;11.09;98.14
21086;BME280;34247;50.064;19.970;2022-09-19T00:38:16;98338.25;;;11.06;98.07
21086;BME280;34247;50.064;19.970;2022-09-19T00:39:20;98333.53;;;11.10;98.29
21086;BME280;34247;50.064;19.970;2022-09-19T00:40:23;98340.66;;;11.09;98.11
21086;BME280;34247;50.064;19.970;2022-09-19T00:41:27;98337.03;;;11.10;98.31
21086;BME280;34247;50.064;19.970;2022-09-19T00:42:31;98344.16;;;11.10;98.33
21086;BME280;34247;50.064;19.970;2022-09-19T00:43:54;98341.09;;;11.14;98.30
21086;BME280;34247;50.064;19.970;2022-09-19T00:45:04;98336.50;;;11.16;98.39
21086;BME280;34247;50.064;19.970;2022-09-19T00:46:08;98331.56;;;11.12;98.32
21086;BME280;34247;50.064;19.970;2022-09-19T00:47:17;98335.53;;;11.17;98.45
21086;BME280;34247;50.064;19.970;2022-09-19T00:48:28;98343.34;;;11.19;98.28
21086;BME280;34247;50.064;19.970;2022-09-19T00:49:35;98327.81;;;11.14;98.12
21086;BME280;34247;50.064;19.970;2022-09-19T00:50:46;98340.44;;;11.22;98.32
21086;BME280;34247;50.064;19.970;2022-09-19T00:52:01;98332.34;;;11.23;98.30
21086;BME280;34247;50.064;19.970;2022-09-19T00:53:14;98337.53;;;11.25;98.48
21086;BME280;34247;50.064;19.970;2022-09-19T00:54:43;98337.38;;;11.26;98.47
21086;BME280;34247;50.064;19.970;2022-09-19T00:55:52;98333.06;;;11.25;98.38
21086;BME280;34247;50.064;19.970;2022-09-19T00:57:00;98334.72;;;11.26;98.46
21086;BME280;34247;50.064;19.970;2022-09-19T00:58:33;98330.25;;;11.27;98.76
21086;BME280;34247;50.064;19.970;2022-09-19T00:59:41;98334.34;;;11.31;98.50
21086;BME280;34247;50.064;19.970;2022-09-19T01:00:46;98341.34;;;11.32;98.56
21086;BME280;34247;50.064;19.970;2022-09-19T01:01:54;98324.94;;;11.27;98.51
21086;BME280;34247;50.064;19.970;2022-09-19T01:02:58;98334.19;;;11.32;98.37
21086;BME280;34247;50.064;19.970;2022-09-19T01:04:17;98333.38;;;11.32;98.59
21086;BME280;34247;50.064;19.970;2022-09-19T01:05:40;98327.91;;;11.33;98.79
21086;BME280;34247;50.064;19.970;2022-09-19T01:07:19;98330.44;;;11.35;98.58
21086;BME280;34247;50.064;19.970;2022-09-19T01:13:05;98337.31;;;11.38;98.74
21086;BME280;34247;50.064;19.970;2022-09-19T01:16:09;98337.31;;;11.38;98.60
21086;BME280;34247;50.064;19.970;2022-09-19T01:17:24;98341.66;;;11.39;98.78
21086;BME280;34247;50.064;19.970;2022-09-19T01:18:49;98344.56;;;11.36;98.39
21086;BME280;34247;50.064;19.970;2022-09-19T01:21:34;98337.00;;;11.31;98.76
21086;BME280;34247;50.064;19.970;2022-09-19T01:23:26;98344.84;;;11.32;99.02
21086;BME280;34247;50.064;19.970;2022-09-19T01:24:58;98340.88;;;11.27;99.20
21086;BME280;34247;50.064;19.970;2022-09-19T01:28:19;98344.25;;;11.29;99.04
21086;BME280;34247;50.064;19.970;2022-09-19T01:29:44;98347.03;;;11.27;99.26
21086;BME280;34247;50.064;19.970;2022-09-19T01:30:55;98347.03;;;11.27;99.12
21086;BME280;34247;50.064;19.970;2022-09-19T01:32:31;98344.25;;;11.29;99.58
21086;BME280;34247;50.064;19.970;2022-09-19T01:33:39;98335.94;;;11.22;99.76
21086;BME280;34247;50.064;19.970;2022-09-19T01:34:55;98339.19;;;11.26;99.54
21086;BME280;34247;50.064;19.970;2022-09-19T01:36:05;98341.72;;;11.27;99.51
21086;BME280;34247;50.064;19.970;2022-09-19T01:38:31;98345.06;;;11.29;99.86
21086;BME280;34247;50.064;19.970;2022-09-19T01:39:48;98352.94;;;11.31;100.00
21086;BME280;34247;50.064;19.970;2022-09-19T01:40:53;98345.66;;;11.33;100.00
21086;BME280;34247;50.064;19.970;2022-09-19T01:41:58;98342.41;;;11.29;100.00
21086;BME280;34247;50.064;19.970;2022-09-19T01:43:04;98345.81;;;11.31;100.00
21086;BME280;34247;50.064;19.970;2022-09-19T01:44:18;98346.38;;;11.35;99.97
21086;BME280;34247;50.064;19.970;2022-09-19T01:45:43;98339.38;;;11.34;100.00
21086;BME280;34247;50.064;19.970;2022-09-19T01:48:55;98354.19;;;11.37;100.00
21086;BME280;34247;50.064;19.970;2022-09-19T01:50:36;98347.22;;;11.36;100.00
21086;BME280;34247;50.064;19.970;2022-09-19T01:51:53;98355.19;;;11.36;100.00
21086;BME280;34247;50.064;19.970;2022-09-19T01:53:42;98352.66;;;11.34;100.00
21086;BME280;34247;50.064;19.970;2022-09-19T01:55:19;98351.13;;;11.31;100.00
21086;BME280;34247;50.064;19.970;2022-09-19T01:56:54;98339.75;;;11.29;100.00
21086;BME280;34247;50.064;19.970;2022-09-19T01:58:11;98347.72;;;11.29;100.00
21086;BME280;34247;50.064;19.970;2022-09-19T01:59:35;98355.19;;;11.36;100.00
21086;BME280;34247;50.064;19.970;2022-09-19T02:09:09;98324.72;;;11.09;100.00
21086;BME280;34247;50.064;19.970;2022-09-19T02:12:57;98369.72;;;11.31;100.00
21086;BME280;34247;50.064;19.970;2022-09-19T02:14:12;98343.03;;;11.12;100.00
21086;BME280;34247;50.064;19.970;2022-09-19T02:18:54;98342.19;;;11.12;100.00
21086;BME280;34247;50.064;19.970;2022-09-19T02:20:09;98358.19;;;11.21;100.00
21086;BME280;34247;50.064;19.970;2022-09-19T02:21:24;98352.31;;;11.18;100.00
21086;BME280;34247;50.064;19.970;2022-09-19T02:22:39;98374.28;;;11.29;100.00
21086;BME280;34247;50.064;19.970;2022-09-19T02:23:52;98357.34;;;11.21;100.00
21086;BME280;34247;50.064;19.970;2022-09-19T02:25:08;98366.47;;;11.28;100.00
21086;BME280;34247;50.064;19.970;2022-09-19T02:26:21;98333.06;;;11.04;100.00
21086;BME280;34247;50.064;19.970;2022-09-19T02:27:33;98341.63;;;11.08;100.00
21086;BME280;34247;50.064;19.970;2022-09-19T02:28:43;98367.81;;;11.22;100.00
21086;BME280;34247;50.064;19.970;2022-09-19T02:30:01;98368.94;;;11.20;100.00
21086;BME280;34247;50.064;19.970;2022-09-19T02:31:12;98336.50;;;10.95;100.00
21086;BME280;34247;50.064;19.970;2022-09-19T02:32:18;98377.50;;;11.23;100.00
21086;BME280;34247;50.064;19.970;2022-09-19T02:33:24;98359.75;;;11.03;100.00
21086;BME280;34247;50.064;19.970;2022-09-19T02:34:34;98324.59;;;10.90;100.00
21086;BME280;34247;50.064;19.970;2022-09-19T02:36:00;98369.03;;;11.09;100.00
21086;BME280;34247;50.064;19.970;2022-09-19T02:56:46;98375.69;;;11.03;99.47
21086;BME280;34247;50.064;19.970;2022-09-19T02:57:59;98348.16;;;10.83;99.70
21086;BME280;34247;50.064;19.970;2022-09-19T02:59:13;98386.19;;;11.04;99.35
21086;BME280;34247;50.064;19.970;2022-09-19T03:00:21;98350.94;;;10.82;99.24
21086;BME280;34247;50.064;19.970;2022-09-19T03:01:29;98350.09;;;10.81;99.38
21086;BME280;34247;50.064;19.970;2022-09-19T03:02:52;98347.69;;;10.78;99.44
21086;BME280;34247;50.064;19.970;2022-09-19T03:04:10;98377.41;;;10.93;99.31
21086;BME280;34247;50.064;19.970;2022-09-19T03:05:20;98364.22;;;10.82;99.28
21086;BME280;34247;50.064;19.970;2022-09-19T03:06:33;98392.47;;;11.03;99.24
21086;BME280;34247;50.064;19.970;2022-09-19T03:07:50;98399.59;;;11.03;99.05
21086;BME280;34247;50.064;19.970;2022-09-19T03:09:02;98392.84;;;10.99;99.23
21086;BME280;34247;50.064;19.970;2022-09-19T03:10:17;98375.81;;;10.81;99.08
21086;BME280;34247;50.064;19.970;2022-09-19T03:11:26;98359.22;;;10.67;98.81
21086;BME280;34247;50.064;19.970;2022-09-19T03:12:53;98398.66;;;10.93;98.79
21086;BME280;34247;50.064;19.970;2022-09-19T03:13:59;98404.94;;;10.92;99.19
21086;BME280;34247;50.064;19.970;2022-09-19T03:15:06;98393.66;;;10.78;98.84
21086;BME280;34247;50.064;19.970;2022-09-19T03:16:19;98401.97;;;10.85;99.20
21086;BME280;34247;50.064;19.970;2022-09-19T03:17:36;98361.19;;;10.54;99.07
21086;BME280;34247;50.064;19.970;2022-09-19T03:18:46;98386.88;;;10.65;98.99
21086;BME280;34247;50.064;19.970;2022-09-19T03:19:56;98379.97;;;10.62;99.01
21086;BME280;34247;50.064;19.970;2022-09-19T03:21:10;98350.75;;;10.41;99.08
21086;BME280;34247;50.064;19.970;2022-09-19T03:22:24;98388.22;;;10.59;99.20
21086;BME280;34247;50.064;19.970;2022-09-19T03:23:47;98391.84;;;10.58;99.16
21086;BME280;34247;50.064;19.970;2022-09-19T03:24:55;98397.16;;;10.58;99.38
21086;BME280;34247;50.064;19.970;2022-09-19T03:26:30;98371.59;;;10.46;99.27
21086;BME280;34247;50.064;19.970;2022-09-19T03:27:52;98365.97;;;10.39;99.26
21086;BME280;34247;50.064;19.970;2022-09-19T03:29:10;98397.16;;;10.58;99.43
21086;BME280;34247;50.064;19.970;2022-09-19T03:30:18;98371.88;;;10.43;99.16
21086;BME280;34247;50.064;19.970;2022-09-19T03:31:29;98366.81;;;10.40;99.46
21086;BME280;34247;50.064;19.970;2022-09-19T03:52:07;98383.06;;;10.46;99.06
21086;BME280;34247;50.064;19.970;2022-09-19T03:53:12;98439.53;;;10.81;99.00
21086;BME280;34247;50.064;19.970;2022-09-19T03:54:17;98418.44;;;10.68;99.14
21086;BME280;34247;50.064;19.970;2022-09-19T03:55:22;98407.22;;;10.64;99.14
21086;BME280;34247;50.064;19.970;2022-09-19T03:56:27;98436.59;;;10.84;99.13
21086;BME280;34247;50.064;19.970;2022-09-19T03:57:32;98429.88;;;10.80;99.20
21086;BME280;34247;50.064;19.970;2022-09-19T03:58:39;98435.50;;;10.86;99.23
21086;BME280;34247;50.064;19.970;2022-09-19T03:59:44;98384.25;;;10.54;98.92
21086;BME280;34247;50.064;19.970;2022-09-19T04:01:04;98400.25;;;10.63;98.95
21086;BME280;34247;50.064;19.970;2022-09-19T04:02:11;98377.38;;;10.51;98.91
21086;BME280;34247;50.064;19.970;2022-09-19T04:03:16;98415.03;;;10.77;99.23
21086;BME280;34247;50.064;19.970;2022-09-19T04:04:22;98430.72;;;10.80;99.18
21086;BME280;34247;50.064;19.970;2022-09-19T04:05:28;98393.75;;;10.56;99.29
21086;BME280;34247;50.064;19.970;2022-09-19T04:06:32;98414.44;;;10.73;99.05
21086;BME280;34247;50.064;19.970;2022-09-19T04:07:37;98412.03;;;10.70;99.48
21086;BME280;34247;50.064;19.970;2022-09-19T04:08:50;98434.78;;;10.84;99.52
21086;BME280;34247;50.064;19.970;2022-09-19T04:10:12;98377.38;;;10.51;99.01
21086;BME280;34247;50.064;19.970;2022-09-19T04:11:18;98426.81;;;10.84;99.38
21086;BME280;34247;50.064;19.970;2022-09-19T04:12:24;98427.94;;;10.82;99.42
21086;BME280;34247;50.064;19.970;2022-09-19T04:13:46;98381.59;;;10.54;99.36
21086;BME280;34247;50.064;19.970;2022-09-19T04:15:20;98381.47;;;10.55;99.12
21086;BME280;34247;50.064;19.970;2022-09-19T04:16:42;98433.94;;;10.84;99.29
21086;BME280;34247;50.064;19.970;2022-09-19T04:17:49;98391.09;;;10.56;99.18
21086;BME280;34247;50.064;19.970;2022-09-19T04:19:21;98437.56;;;10.83;99.05
21086;BME280;34247;50.064;19.970;2022-09-19T04:35:36;98409.94;;;10.53;99.75
21086;BME280;34247;50.064;19.970;2022-09-19T04:44:18;98396.19;;;10.48;99.47
21086;BME280;34247;50.064;19.970;2022-09-19T04:45:32;98451.47;;;10.75;99.39
21086;BME280;34247;50.064;19.970;2022-09-19T04:46:36;98437.59;;;10.71;99.47
21086;BME280;34247;50.064;19.970;2022-09-19T04:47:55;98418.38;;;10.58;99.41
21086;BME280;34247;50.064;19.970;2022-09-19T04:49:08;98470.97;;;10.85;99.48
21086;BME280;34247;50.064;19.970;2022-09-19T04:50:13;98435.47;;;10.65;99.46
21086;BME280;34247;50.064;19.970;2022-09-19T04:51:21;98436.19;;;10.67;99.44
21086;BME280;34247;50.064;19.970;2022-09-19T04:52:43;98454.00;;;10.76;99.25
21086;BME280;34247;50.064;19.970;2022-09-19T04:53:51;98431.25;;;10.63;99.49
21086;BME280;34247;50.064;19.970;2022-09-19T04:54:57;98444.50;;;10.74;99.79
21086;BME280;34247;50.064;19.970;2022-09-19T04:56:05;98431.50;;;10.60;99.39
21086;BME280;34247;50.064;19.970;2022-09-19T04:57:10;98477.59;;;10.91;99.88
21086;BME280;34247;50.064;19.970;2022-09-19T04:58:18;98426.06;;;10.61;99.55
21086;BME280;34247;50.064;19.970;2022-09-19T04:59:23;98476.41;;;10.95;99.59
21086;BME280;34247;50.064;19.970;2022-09-19T05:00:28;98432.28;;;10.71;99.46
21086;BME280;34247;50.064;19.970;2022-09-19T05:01:42;98445.66;;;10.81;99.40
21086;BME280;34247;50.064;19.970;2022-09-19T05:02:49;98472.63;;;10.97;99.33
21086;BME280;34247;50.064;19.970;2022-09-19T05:04:02;98460.97;;;10.89;99.34
21086;BME280;34247;50.064;19.970;2022-09-19T05:05:43;98472.13;;;11.03;99.47
21086;BME280;34247;50.064;19.970;2022-09-19T05:06:48;98436.97;;;10.79;99.11
21086;BME280;34247;50.064;19.970;2022-09-19T05:07:52;98451.19;;;10.89;99.25
21086;BME280;34247;50.064;19.970;2022-09-19T05:08:57;98479.00;;;11.06;98.95
21086;BME280;34247;50.064;19.970;2022-09-19T05:10:04;98463.81;;;10.97;98.89
21086;BME280;34247;50.064;19.970;2022-09-19T05:11:08;98484.16;;;11.08;99.10
21086;BME280;34247;50.064;19.970;2022-09-19T05:12:12;98477.31;;;11.05;98.99
21086;BME280;34247;50.064;19.970;2022-09-19T05:13:36;98489.25;;;11.11;98.77
21086;BME280;34247;50.064;19.970;2022-09-19T05:14:46;98484.78;;;11.11;98.61
21086;BME280;34247;50.064;19.970;2022-09-19T05:15:54;98471.53;;;11.00;98.82
21086;BME280;34247;50.064;19.970;2022-09-19T05:16:59;98461.63;;;11.02;98.78
21086;BME280;34247;50.064;19.970;2022-09-19T05:18:05;98459.34;;;10.97;98.74
21086;BME280;34247;50.064;19.970;2022-09-19T05:19:12;98436.72;;;10.82;98.41
21086;BME280;34247;50.064;19.970;2022-09-19T05:20:17;98498.25;;;11.19;98.30
21086;BME280;34247;50.064;19.970;2022-09-19T05:21:22;98436.22;;;10.88;98.03
21086;BME280;34247;50.064;19.970;2022-09-19T05:22:29;98493.53;;;11.23;97.84
21086;BME280;34247;50.064;19.970;2022-09-19T05:23:36;98495.22;;;11.24;97.86
21086;BME280;34247;50.064;19.970;2022-09-19T05:24:40;98501.38;;;11.24;97.65
21086;BME280;34247;50.064;19.970;2022-09-19T05:25:44;98504.88;;;11.25;97.68
21086;BME280;34247;50.064;19.970;2022-09-19T05:26:48;98495.47;;;11.21;97.54
21086;BME280;34247;50.064;19.970;2022-09-19T05:27:51;98504.88;;;11.25;97.46
21086;BME280;34247;50.064;19.970;2022-09-19T05:28:56;98509.47;;;11.23;97.41
21086;BME280;34247;50.064;19.970;2022-09-19T05:30:00;98495.13;;;11.14;97.42
21086;BME280;34247;50.064;19.970;2022-09-19T05:31:04;98513.06;;;11.22;97.26
21086;BME280;34247;50.064;19.970;2022-09-19T05:32:09;98507.75;;;11.22;97.50
21086;BME280;34247;50.064;19.970;2022-09-19T05:33:13;98502.13;;;11.15;97.51
21086;BME280;34247;50.064;19.970;2022-09-19T05:34:16;98514.78;;;11.23;97.30
21086;BME280;34247;50.064;19.970;2022-09-19T05:35:20;98512.97;;;11.23;97.51
21086;BME280;34247;50.064;19.970;2022-09-19T05:36:24;98508.88;;;11.19;97.35
21086;BME280;34247;50.064;19.970;2022-09-19T05:37:30;98512.25;;;11.21;97.21
21086;BME280;34247;50.064;19.970;2022-09-19T05:38:34;98522.63;;;11.24;97.09
21086;BME280;34247;50.064;19.970;2022-09-19T05:39:38;98518.28;;;11.23;97.24
21086;BME280;34247;50.064;19.970;2022-09-19T05:40:43;98524.31;;;11.25;97.10
21086;BME280;34247;50.064;19.970;2022-09-19T05:41:46;98521.78;;;11.24;97.14
21086;BME280;34247;50.064;19.970;2022-09-19T05:42:50;98520.69;;;11.26;97.42
21086;BME280;34247;50.064;19.970;2022-09-19T05:43:54;98522.34;;;11.27;97.35
21086;BME280;34247;50.064;19.970;2022-09-19T05:44:58;98524.78;;;11.30;97.14
21086;BME280;34247;50.064;19.970;2022-09-19T05:46:02;98514.66;;;11.24;97.04
21086;BME280;34247;50.064;19.970;2022-09-19T05:47:06;98517.75;;;11.29;96.93
21086;BME280;34247;50.064;19.970;2022-09-19T05:48:10;98523.53;;;11.35;96.81
21086;BME280;34247;50.064;19.970;2022-09-19T05:49:13;98523.53;;;11.35;96.72
21086;BME280;34247;50.064;19.970;2022-09-19T05:50:17;98525.97;;;11.38;96.41
21086;BME280;34247;50.064;19.970;2022-09-19T05:51:21;98532.81;;;11.40;96.67
21086;BME280;34247;50.064;19.970;2022-09-19T05:52:25;98530.88;;;11.42;96.18
21086;BME280;34247;50.064;19.970;2022-09-19T05:53:47;98518.81;;;11.38;95.99
21086;BME280;34247;50.064;19.970;2022-09-19T05:54:59;98519.66;;;11.39;96.07
21086;BME280;34247;50.064;19.970;2022-09-19T05:56:05;98527.22;;;11.43;95.86
21086;BME280;34247;50.064;19.970;2022-09-19T05:57:12;98505.34;;;11.30;95.93
21086;BME280;34247;50.064;19.970;2022-09-19T05:58:16;98532.03;;;11.49;95.79
21086;BME280;34247;50.064;19.970;2022-09-19T05:59:20;98534.56;;;11.51;95.96
21086;BME280;34247;50.064;19.970;2022-09-19T06:00:26;98512.41;;;11.41;95.75
21086;BME280;34247;50.064;19.970;2022-09-19T06:01:30;98528.41;;;11.50;95.70
21086;BME280;34247;50.064;19.970;2022-09-19T06:02:34;98537.53;;;11.57;95.54
21086;BME280;34247;50.064;19.970;2022-09-19T06:03:39;98539.22;;;11.58;95.27
21086;BME280;34247;50.064;19.970;2022-09-19T06:04:43;98532.00;;;11.60;95.41
21086;BME280;34247;50.064;19.970;2022-09-19T06:05:50;98537.16;;;11.62;94.99
21086;BME280;34247;50.064;19.970;2022-09-19T06:06:55;98523.41;;;11.57;95.18
21086;BME280;34247;50.064;19.970;2022-09-19T06:08:00;98531.59;;;11.65;94.97
21086;BME280;34247;50.064;19.970;2022-09-19T06:09:03;98514.88;;;11.53;94.74
21086;BME280;34247;50.064;19.970;2022-09-19T06:10:07;98529.38;;;11.70;94.40
21086;BME280;34247;50.064;19.970;2022-09-19T06:11:12;98537.13;;;11.73;94.30
21086;BME280;34247;50.064;19.970;2022-09-19T06:12:16;98550.13;;;11.76;94.41
21086;BME280;34247;50.064;19.970;2022-09-19T06:13:22;98539.78;;;11.73;94.18
21086;BME280;34247;50.064;19.970;2022-09-19T06:14:26;98545.38;;;11.80;94.04
21086;BME280;34247;50.064;19.970;2022-09-19T06:15:30;98552.44;;;11.81;93.76
21086;BME280;34247;50.064;19.970;2022-09-19T06:16:34;98542.88;;;11.78;93.53
21086;BME280;34247;50.064;19.970;2022-09-19T06:17:39;98531.34;;;11.68;93.44
21086;BME280;34247;50.064;19.970;2022-09-19T06:18:44;98545.81;;;11.75;93.41
21086;BME280;34247;50.064;19.970;2022-09-19T06:19:49;98545.09;;;11.73;93.21
21086;BME280;34247;50.064;19.970;2022-09-19T06:20:55;98540.47;;;11.75;93.38
21086;BME280;34247;50.064;19.970;2022-09-19T06:21:59;98551.81;;;11.77;93.11
21086;BME280;34247;50.064;19.970;2022-09-19T06:23:06;98541.31;;;11.76;92.69
21086;BME280;34247;50.064;19.970;2022-09-19T06:24:10;98543.97;;;11.76;92.74
21086;BME280;34247;50.064;19.970;2022-09-19T06:25:14;98529.66;;;11.67;92.93
21086;BME280;34247;50.064;19.970;2022-09-19T06:26:18;98551.19;;;11.85;92.80
21086;BME280;34247;50.064;19.970;2022-09-19T06:27:23;98547.69;;;11.84;92.43
21086;BME280;34247;50.064;19.970;2022-09-19T06:28:26;98544.47;;;11.81;92.13
21086;BME280;34247;50.064;19.970;2022-09-19T06:29:30;98542.38;;;11.84;92.45
21086;BME280;34247;50.064;19.970;2022-09-19T06:30:34;98556.72;;;11.93;92.23
21086;BME280;34247;50.064;19.970;2022-09-19T06:31:38;98561.78;;;11.96;91.66
21086;BME280;34247;50.064;19.970;2022-09-19T06:32:42;98561.78;;;11.96;91.63
21086;BME280;34247;50.064;19.970;2022-09-19T06:33:46;98554.19;;;11.92;91.40
21086;BME280;34247;50.064;19.970;2022-09-19T06:34:49;98547.88;;;11.93;90.71
21086;BME280;34247;50.064;19.970;2022-09-19T06:36:01;98556.19;;;11.99;90.30
21086;BME280;34247;50.064;19.970;2022-09-19T06:37:05;98557.63;;;12.03;90.57
21086;BME280;34247;50.064;19.970;2022-09-19T06:38:11;98563.38;;;12.08;90.65
21086;BME280;34247;50.064;19.970;2022-09-19T06:39:16;98563.25;;;12.10;90.41
21086;BME280;34247;50.064;19.970;2022-09-19T06:40:23;98560.59;;;12.10;90.35
21086;BME280;34247;50.064;19.970;2022-09-19T06:41:28;98562.28;;;12.11;89.99
21086;BME280;34247;50.064;19.970;2022-09-19T06:42:31;98568.59;;;12.10;89.84
21086;BME280;34247;50.064;19.970;2022-09-19T06:43:35;98565.19;;;12.08;89.77
21086;BME280;34247;50.064;19.970;2022-09-19T06:44:39;98569.09;;;12.04;89.91
21086;BME280;34247;50.064;19.970;2022-09-19T06:45:44;98567.41;;;12.03;89.69
21086;BME280;34247;50.064;19.970;2022-09-19T06:46:48;98572.00;;;12.01;90.04
21086;BME280;34247;50.064;19.970;2022-09-19T06:47:59;98566.97;;;11.98;89.87
21086;BME280;34247;50.064;19.970;2022-09-19T06:49:03;98563.72;;;11.94;89.84
21086;BME280;34247;50.064;19.970;2022-09-19T06:52:13;98554.13;;;11.82;89.71
21086;BME280;34247;50.064;19.970;2022-09-19T06:53:18;98571.13;;;11.91;89.52
21086;BME280;34247;50.064;19.970;2022-09-19T06:54:22;98579.09;;;11.91;89.82
21086;BME280;34247;50.064;19.970;2022-09-19T06:55:27;98573.78;;;11.91;89.90
21086;BME280;34247;50.064;19.970;2022-09-19T06:56:32;98573.06;;;11.89;89.83
21086;BME280;34247;50.064;19.970;2022-09-19T06:57:36;98582.31;;;11.94;89.65
21086;BME280;34247;50.064;19.970;2022-09-19T06:58:40;98590.91;;;11.98;89.38
21086;BME280;34247;50.064;19.970;2022-09-19T06:59:44;98593.56;;;11.98;89.23
21086;BME280;34247;50.064;19.970;2022-09-19T07:00:48;98594.53;;;11.97;88.80
21086;BME280;34247;50.064;19.970;2022-09-19T07:01:58;98594.03;;;12.03;88.91
21086;BME280;34247;50.064;19.970;2022-09-19T07:03:09;98588.44;;;12.06;88.70
21086;BME280;34247;50.064;19.970;2022-09-19T07:04:14;98587.91;;;12.12;88.16
21086;BME280;34247;50.064;19.970;2022-09-19T07:05:17;98586.28;;;12.21;88.10
21086;BME280;34247;50.064;19.970;2022-09-19T07:06:21;98591.78;;;12.29;87.60
21086;BME280;34247;50.064;19.970;2022-09-19T07:07:25;98592.94;;;12.36;87.13
21086;BME280;34247;50.064;19.970;2022-09-19T07:08:31;98592.13;;;12.45;86.37
21086;BME280;34247;50.064;19.970;2022-09-19T07:09:38;98592.72;;;12.49;85.98
21086;BME280;34247;50.064;19.970;2022-09-19T07:10:43;98597.22;;;12.58;85.46
21086;BME280;34247;50.064;19.970;2022-09-19T07:11:47;98590.09;;;12.58;85.11
21086;BME280;34247;50.064;19.970;2022-09-19T07:12:59;98599.06;;;12.67;84.42
21086;BME280;34247;50.064;19.970;2022-09-19T07:14:05;98593.50;;;12.70;84.63
21086;BME280;34247;50.064;19.970;2022-09-19T07:15:13;98595.63;;;12.76;83.98
21086;BME280;34247;50.064;19.970;2022-09-19T07:16:16;98590.31;;;12.86;84.26
21086;BME280;34247;50.064;19.970;2022-09-19T07:17:20;98599.47;;;13.03;83.80
21086;BME280;34247;50.064;19.970;2022-09-19T07:18:25;98591.09;;;13.17;83.11
21086;BME280;34247;50.064;19.970;2022-09-19T07:19:30;98603.22;;;13.40;83.10
21086;BME280;34247;50.064;19.970;2022-09-19T07:20:35;98593.53;;;13.68;82.56
21086;BME280;34247;50.064;19.970;2022-09-19T07:21:40;98602.44;;;14.25;80.62
21086;BME280;34247;50.064;19.970;2022-09-19T07:23:03;98602.59;;;14.98;77.09
21086;BME280;34247;50.064;19.970;2022-09-19T07:24:15;98594.00;;;15.67;74.28
21086;BME280;34247;50.064;19.970;2022-09-19T07:25:19;98596.44;;;16.48;72.45
21086;BME280;34247;50.064;19.970;2022-09-19T07:26:23;98596.13;;;17.28;67.49
21086;BME280;34247;50.064;19.970;2022-09-19T07:27:29;98587.00;;;17.87;64.45
21086;BME280;34247;50.064;19.970;2022-09-19T07:28:33;98594.13;;;18.52;60.85
21086;BME280;34247;50.064;19.970;2022-09-19T07:29:38;98602.53;;;19.13;59.25
21086;BME280;34247;50.064;19.970;2022-09-19T07:30:44;98594.56;;;19.50;55.97
21086;BME280;34247;50.064;19.970;2022-09-19T07:31:56;98581.03;;;19.67;55.14
21086;BME280;34247;50.064;19.970;2022-09-19T07:33:03;98578.16;;;19.68;52.47
21086;BME280;34247;50.064;19.970;2022-09-19T07:34:08;98597.81;;;19.92;53.97